Time;durP1;ratioP1;P1;durP2;ratioP2;P2;SDS_P1;SDS_P2;PMS_P1;PMS_P2;Temp;Humidity;BMP_temperature;BMP_pressure;BME280_temperature;BME280_humidity;BME280_pressure;Samples;Min_cycle;Max_cycle;Signal;HPM_P1;HPM_P2
2023/08/30 00:00:06;;;;;;;0.10;0.10;;;16.30;99.90;;;;;;5047400;28;20182;-83
2023/08/30 00:02:31;;;;;;;0.10;0.10;;;16.30;99.90;;;;;;5049495;28;20184;-83
2023/08/30 00:04:59;;;;;;;0.10;0.10;;;16.30;99.90;;;;;;5046712;28;20690;-83
2023/08/30 00:07:24;;;;;;;0.10;0.10;;;16.30;99.90;;;;;;5048046;28;20224;-82
2023/08/30 00:09:50;;;;;;;0.10;0.10;;;16.20;99.90;;;;;;5047534;28;20228;-84
2023/08/30 00:12:15;;;;;;;0.10;0.10;;;16.00;99.90;;;;;;5049558;28;20252;-83
2023/08/30 00:14:41;;;;;;;0.10;0.10;;;15.80;99.90;;;;;;5046966;28;20201;-82
2023/08/30 00:17:07;;;;;;;0.10;0.10;;;15.40;99.90;;;;;;5047409;28;20206;-83
2023/08/30 00:19:32;;;;;;;0.10;0.10;;;15.30;99.90;;;;;;5047652;28;20178;-83
2023/08/30 00:21:59;;;;;;;0.10;0.10;;;15.20;99.90;;;;;;5045818;28;20796;-84
2023/08/30 00:24:24;;;;;;;0.10;0.10;;;15.20;99.90;;;;;;5048154;28;20305;-84
2023/08/30 00:26:50;;;;;;;0.10;0.10;;;15.20;99.90;;;;;;5048740;28;20205;-84
2023/08/30 00:29:15;;;;;;;0.10;0.10;;;15.30;99.90;;;;;;5046370;28;20221;-81
2023/08/30 00:31:41;;;;;;;0.10;0.10;;;15.40;99.90;;;;;;5047529;28;20547;-83
2023/08/30 00:34:06;;;;;;;0.10;0.10;;;15.60;99.90;;;;;;5047981;28;20220;-83
2023/08/30 00:36:32;;;;;;;0.10;0.10;;;15.70;99.90;;;;;;5045925;28;20211;-82
2023/08/30 00:38:57;;;;;;;0.10;0.10;;;15.80;99.90;;;;;;5047537;28;20185;-82
2023/08/30 00:41:23;;;;;;;0.10;0.10;;;15.90;99.90;;;;;;5048534;28;20184;-83
2023/08/30 00:43:48;;;;;;;0.10;0.10;;;16.00;99.90;;;;;;5048385;28;20224;-82
2023/08/30 00:46:15;;;;;;;0.10;0.10;;;15.80;99.90;;;;;;5062967;28;20674;-84
2023/08/30 00:48:41;;;;;;;0.10;0.10;;;15.60;99.90;;;;;;5046437;28;20303;-82
2023/08/30 00:51:07;;;;;;;0.10;0.10;;;15.40;99.90;;;;;;5045410;28;20675;-83
2023/08/30 00:53:32;;;;;;;0.10;0.10;;;15.60;99.90;;;;;;5046941;28;20181;-83
2023/08/30 00:55:58;;;;;;;0.10;0.10;;;15.50;99.90;;;;;;5048225;28;20229;-83
2023/08/30 00:58:26;;;;;;;0.10;0.10;;;15.40;99.90;;;;;;5039964;28;20182;-83
2023/08/30 01:00:52;;;;;;;0.10;0.10;;;15.60;99.90;;;;;;5045539;28;20185;-83
2023/08/30 01:03:18;;;;;;;0.10;0.10;;;15.70;99.90;;;;;;5055987;28;20196;-84
2023/08/30 01:05:44;;;;;;;0.10;0.10;;;15.70;99.90;;;;;;5046026;28;20675;-83
2023/08/30 01:08:11;;;;;;;0.10;0.10;;;15.60;99.90;;;;;;5046790;28;21928;-84
2023/08/30 01:11:02;;;;;;;0.10;0.10;;;15.70;99.90;;;;;;5045042;28;20185;-84
2023/08/30 01:13:30;;;;;;;0.10;0.10;;;15.70;99.90;;;;;;5054415;28;20182;-83
2023/08/30 01:15:57;;;;;;;0.10;0.10;;;15.60;99.90;;;;;;5044760;28;20348;-83
2023/08/30 01:18:28;;;;;;;0.10;0.10;;;15.50;99.90;;;;;;5063482;28;20189;-83
2023/08/30 01:20:55;;;;;;;0.10;0.10;;;15.40;99.90;;;;;;5048312;28;20261;-82
2023/08/30 01:23:49;;;;;;;0.10;0.10;;;15.50;99.90;;;;;;5047156;28;20706;-82
2023/08/30 01:26:41;;;;;;;0.10;0.10;;;15.40;99.90;;;;;;5049130;28;20190;-82
2023/08/30 01:29:08;;;;;;;0.10;0.10;;;15.20;99.90;;;;;;5049004;28;20263;-81
2023/08/30 01:31:34;;;;;;;0.10;0.10;;;15.20;99.90;;;;;;5048592;28;20177;-82
2023/08/30 01:34:02;;;;;;;0.10;0.10;;;15.10;99.90;;;;;;5050522;28;20560;-82
2023/08/30 01:36:29;;;;;;;0.10;0.10;;;15.00;99.90;;;;;;5047940;28;20574;-82
2023/08/30 01:38:55;;;;;;;0.10;0.10;;;15.10;99.90;;;;;;5048567;28;20192;-82
2023/08/30 01:41:23;;;;;;;0.10;0.10;;;15.00;99.90;;;;;;5049692;28;20210;-82
2023/08/30 01:43:51;;;;;;;0.10;0.10;;;14.90;99.90;;;;;;5051628;28;20201;-81
2023/08/30 01:46:19;;;;;;;0.10;0.10;;;14.90;99.90;;;;;;5050767;28;20185;-81
2023/08/30 01:48:46;;;;;;;0.10;0.10;;;15.00;99.90;;;;;;5049939;28;20650;-82
2023/08/30 01:51:13;;;;;;;0.10;0.10;;;14.90;99.90;;;;;;5048996;28;20212;-81
2023/08/30 01:53:39;;;;;;;0.10;0.10;;;14.90;99.90;;;;;;5046844;28;20217;-81
2023/08/30 01:56:05;;;;;;;0.10;0.10;;;14.80;99.90;;;;;;5047804;28;20205;-82
2023/08/30 01:58:30;;;;;;;0.10;0.10;;;14.80;99.90;;;;;;5048236;28;20181;-82
2023/08/30 02:00:56;;;;;;;0.10;0.10;;;14.90;99.90;;;;;;5048855;28;20185;-82
2023/08/30 02:03:22;;;;;;;0.10;0.10;;;15.00;99.90;;;;;;5056381;28;20658;-82
2023/08/30 02:06:02;;;;;;;0.10;0.10;;;15.10;99.90;;;;;;5049397;28;20189;-81
2023/08/30 02:08:37;;;;;;;0.10;0.10;;;15.30;99.90;;;;;;5064334;28;20699;-80
2023/08/30 02:11:10;;;;;;;0.10;0.10;;;15.20;99.90;;;;;;5047588;28;20553;-82
2023/08/30 02:13:37;;;;;;;0.10;0.10;;;15.00;99.90;;;;;;5064391;28;20324;-82
2023/08/30 02:16:04;;;;;;;0.10;0.10;;;14.90;99.90;;;;;;5048530;28;20697;-81
2023/08/30 02:18:30;;;;;;;0.10;0.10;;;14.90;99.90;;;;;;5045908;28;20188;-82
2023/08/30 02:20:56;;;;;;;0.10;0.10;;;14.90;99.90;;;;;;5047036;28;20195;-81
2023/08/30 02:23:25;;;;;;;0.10;0.10;;;14.90;99.90;;;;;;5046446;28;20655;-81
2023/08/30 02:25:51;;;;;;;0.03;0.03;;;15.10;99.90;;;;;;5047257;28;20184;-81
2023/08/30 02:28:16;;;;;;;0.10;0.10;;;15.30;99.90;;;;;;5049703;28;20203;-82
2023/08/30 02:30:42;;;;;;;0.10;0.10;;;15.40;99.90;;;;;;5051215;28;20189;-81
2023/08/30 02:33:07;;;;;;;0.10;0.10;;;15.50;99.90;;;;;;5051823;28;20188;-82
2023/08/30 02:35:33;;;;;;;0.10;0.10;;;15.60;99.90;;;;;;5052488;28;20240;-82
2023/08/30 02:37:59;;;;;;;0.10;0.10;;;15.70;99.90;;;;;;5053172;28;20205;-82
2023/08/30 02:40:24;;;;;;;0.10;0.10;;;15.80;99.90;;;;;;5051188;28;20200;-82
2023/08/30 02:42:50;;;;;;;0.10;0.10;;;15.80;99.90;;;;;;5051760;28;20250;-81
2023/08/30 02:45:15;;;;;;;0.10;0.10;;;15.80;99.90;;;;;;5053385;28;20197;-82
2023/08/30 02:47:41;;;;;;;0.10;0.10;;;15.90;99.90;;;;;;5050789;28;20651;-81
2023/08/30 02:50:07;;;;;;;0.10;0.10;;;15.80;99.90;;;;;;5043272;28;20241;-82
2023/08/30 02:52:32;;;;;;;0.10;0.10;;;15.90;99.90;;;;;;5049778;28;20276;-82
2023/08/30 02:54:57;;;;;;;0.10;0.10;;;15.90;99.90;;;;;;5049818;28;20209;-82
2023/08/30 02:57:23;;;;;;;0.10;0.10;;;16.00;99.90;;;;;;5050028;28;20209;-82
2023/08/30 02:59:49;;;;;;;0.10;0.10;;;15.80;99.90;;;;;;5051041;28;20711;-82
2023/08/30 03:02:14;;;;;;;0.10;0.10;;;15.60;99.90;;;;;;5050060;28;20186;-82
2023/08/30 03:04:40;;;;;;;0.10;0.10;;;15.40;99.90;;;;;;5049630;28;20225;-82
2023/08/30 03:07:05;;;;;;;0.10;0.10;;;15.20;99.90;;;;;;5050957;28;20201;-82
2023/08/30 03:09:31;;;;;;;0.10;0.10;;;15.10;99.90;;;;;;5052101;28;20572;-83
2023/08/30 03:11:56;;;;;;;0.10;0.10;;;15.10;99.90;;;;;;5049077;28;20182;-82
2023/08/30 03:14:22;;;;;;;0.10;0.10;;;15.10;99.90;;;;;;5050722;28;20759;-81
2023/08/30 03:16:47;;;;;;;0.10;0.10;;;15.30;99.90;;;;;;5052281;28;20574;-81
2023/08/30 03:19:13;;;;;;;0.10;0.10;;;15.30;99.90;;;;;;5067122;28;20558;-82
2023/08/30 03:21:38;;;;;;;0.10;0.10;;;15.30;99.90;;;;;;5050014;28;20189;-82
2023/08/30 03:24:04;;;;;;;0.10;0.10;;;15.30;99.90;;;;;;5049831;28;20217;-81
2023/08/30 03:26:30;;;;;;;0.10;0.10;;;15.30;99.90;;;;;;5066364;28;20185;-81
2023/08/30 03:28:55;;;;;;;0.10;0.10;;;15.30;99.90;;;;;;5050984;28;20717;-82
2023/08/30 03:31:21;;;;;;;0.10;0.10;;;15.20;99.90;;;;;;5049947;28;20186;-81
2023/08/30 03:33:50;;;;;;;0.10;0.10;;;15.10;99.90;;;;;;5049544;28;20200;-81
2023/08/30 03:36:17;;;;;;;0.10;0.10;;;15.00;99.90;;;;;;5049155;28;20201;-82
2023/08/30 03:38:43;;;;;;;0.10;0.10;;;14.90;99.90;;;;;;5049384;28;20186;-81
2023/08/30 03:41:10;;;;;;;0.10;0.10;;;14.90;99.90;;;;;;5050997;28;20190;-82
2023/08/30 03:43:36;;;;;;;0.10;0.10;;;14.90;99.90;;;;;;5050707;28;20209;-81
2023/08/30 03:46:05;;;;;;;0.10;0.10;;;15.00;99.90;;;;;;5050022;28;20263;-82
2023/08/30 03:48:31;;;;;;;0.10;0.10;;;15.20;99.90;;;;;;5048713;28;20192;-82
2023/08/30 03:50:57;;;;;;;0.10;0.10;;;15.10;99.90;;;;;;5049771;28;20189;-82
2023/08/30 03:53:23;;;;;;;0.10;0.10;;;15.20;99.90;;;;;;5045409;28;20256;-82
2023/08/30 03:55:49;;;;;;;0.10;0.10;;;15.30;99.90;;;;;;5046901;28;20194;-82
2023/08/30 03:58:16;;;;;;;0.10;0.10;;;15.40;99.90;;;;;;5045752;28;20191;-82
2023/08/30 04:00:41;;;;;;;0.10;0.10;;;15.50;99.90;;;;;;5045343;28;20651;-82
2023/08/30 04:03:09;;;;;;;0.10;0.10;;;15.50;99.90;;;;;;5044932;28;20209;-82
2023/08/30 04:05:35;;;;;;;0.10;0.10;;;15.60;99.90;;;;;;5061244;28;20201;-82
2023/08/30 04:08:02;;;;;;;0.10;0.10;;;15.60;99.90;;;;;;5043458;28;20205;-82
2023/08/30 04:10:27;;;;;;;0.10;0.10;;;15.40;99.90;;;;;;5046144;28;20181;-82
2023/08/30 04:12:53;;;;;;;0.10;0.10;;;15.40;99.90;;;;;;5044823;28;20186;-82
2023/08/30 04:15:18;;;;;;;0.10;0.10;;;15.50;99.90;;;;;;5046501;28;20205;-82
2023/08/30 04:17:44;;;;;;;0.07;0.07;;;15.50;99.90;;;;;;5061526;28;20267;-82
2023/08/30 04:20:13;;;;;;;0.10;0.10;;;15.60;99.90;;;;;;5045116;28;20193;-82
2023/08/30 04:22:38;;;;;;;0.10;0.10;;;15.60;99.90;;;;;;5043430;28;20197;-82
2023/08/30 04:25:04;;;;;;;0.10;0.10;;;15.20;99.90;;;;;;5044474;28;20215;-82
2023/08/30 04:27:30;;;;;;;0.10;0.10;;;14.90;99.90;;;;;;5044074;28;20244;-83
2023/08/30 04:29:56;;;;;;;0.10;0.10;;;14.80;99.90;;;;;;5045171;28;20666;-82
2023/08/30 04:32:21;;;;;;;0.10;0.10;;;14.60;99.90;;;;;;5043247;28;20185;-82
2023/08/30 04:34:47;;;;;;;0.10;0.10;;;14.70;99.90;;;;;;5045086;28;20209;-82
2023/08/30 04:37:13;;;;;;;0.10;0.10;;;14.60;99.90;;;;;;5045556;28;20213;-82
2023/08/30 04:39:39;;;;;;;0.10;0.10;;;14.40;99.90;;;;;;5046063;28;20252;-81
2023/08/30 04:42:05;;;;;;;0.10;0.10;;;14.40;99.90;;;;;;5044067;28;20259;-83
2023/08/30 04:44:32;;;;;;;0.10;0.10;;;14.20;99.90;;;;;;5044156;28;20208;-83
2023/08/30 04:46:57;;;;;;;0.10;0.10;;;14.20;99.90;;;;;;5045361;28;20196;-83
2023/08/30 04:49:25;;;;;;;0.10;0.10;;;14.40;99.90;;;;;;5042072;28;20650;-82
2023/08/30 04:51:50;;;;;;;0.10;0.10;;;14.40;99.90;;;;;;5043511;28;20999;-85
2023/08/30 04:54:16;;;;;;;0.10;0.10;;;14.50;99.90;;;;;;5043562;28;20208;-84
2023/08/30 04:56:42;;;;;;;0.00;0.00;;;14.40;99.90;;;;;;5058901;28;20623;-84
2023/08/30 04:59:08;;;;;;;0.10;0.10;;;14.40;99.90;;;;;;5044852;28;20192;-85
2023/08/30 05:01:38;;;;;;;0.10;0.10;;;14.50;99.90;;;;;;5044715;28;20192;-84
2023/08/30 05:04:05;;;;;;;0.10;0.10;;;14.40;99.90;;;;;;5044646;28;20216;-84
2023/08/30 05:06:31;;;;;;;0.10;0.10;;;14.40;99.90;;;;;;5060304;28;20188;-85
2023/08/30 05:08:58;;;;;;;0.10;0.10;;;14.50;99.90;;;;;;5044961;28;20255;-84
2023/08/30 05:11:23;;;;;;;0.10;0.10;;;14.40;99.90;;;;;;5045390;28;20185;-84
2023/08/30 05:13:49;;;;;;;0.10;0.10;;;14.40;99.90;;;;;;5044678;28;20290;-84
2023/08/30 05:16:14;;;;;;;0.10;0.10;;;14.40;99.90;;;;;;5045003;28;20739;-84
2023/08/30 05:18:40;;;;;;;0.10;0.10;;;14.30;99.90;;;;;;5044705;28;20189;-83
2023/08/30 05:21:05;;;;;;;0.10;0.10;;;14.30;99.90;;;;;;5043441;28;20621;-84
2023/08/30 05:23:31;;;;;;;0.10;0.10;;;14.30;99.90;;;;;;5044083;28;20181;-84
2023/08/30 05:25:57;;;;;;;0.10;0.10;;;14.30;99.90;;;;;;5043827;28;20193;-82
2023/08/30 05:28:22;;;;;;;0.10;0.10;;;14.40;99.90;;;;;;5045786;28;20275;-82
2023/08/30 05:30:48;;;;;;;0.10;0.10;;;14.40;99.90;;;;;;5044524;28;20188;-82
2023/08/30 05:33:13;;;;;;;0.10;0.10;;;14.50;99.90;;;;;;5042256;28;20196;-82
2023/08/30 05:35:39;;;;;;;0.10;0.10;;;14.50;99.90;;;;;;5045604;28;20219;-82
2023/08/30 05:38:04;;;;;;;0.10;0.10;;;14.50;99.90;;;;;;5044015;28;20195;-82
2023/08/30 05:40:30;;;;;;;0.10;0.10;;;14.50;99.90;;;;;;5043081;28;20276;-82
2023/08/30 05:42:56;;;;;;;0.10;0.10;;;14.60;99.90;;;;;;5043489;28;20208;-82
2023/08/30 05:45:21;;;;;;;0.10;0.10;;;14.70;99.90;;;;;;5043722;28;20295;-82
2023/08/30 05:47:47;;;;;;;0.10;0.10;;;14.90;99.90;;;;;;5045024;28;20187;-82
2023/08/30 05:50:13;;;;;;;0.10;0.10;;;15.20;99.90;;;;;;5043444;28;20931;-82
2023/08/30 05:52:41;;;;;;;0.10;0.10;;;15.40;99.90;;;;;;5043532;28;20189;-82
2023/08/30 05:55:08;;;;;;;0.10;0.10;;;15.50;99.90;;;;;;5044440;28;20227;-82
2023/08/30 05:57:33;;;;;;;0.10;0.10;;;15.80;99.90;;;;;;5041896;28;20213;-82
2023/08/30 06:00:00;;;;;;;0.10;0.10;;;15.40;99.90;;;;;;5041682;28;20605;-82
2023/08/30 06:02:25;;;;;;;0.10;0.10;;;15.60;99.90;;;;;;5046746;28;20246;-81
2023/08/30 06:04:51;;;;;;;0.10;0.10;;;15.80;99.90;;;;;;5046539;28;20682;-82
2023/08/30 06:07:17;;;;;;;0.10;0.10;;;15.50;99.90;;;;;;5046580;28;20204;-82
2023/08/30 06:09:42;;;;;;;0.10;0.10;;;15.30;99.90;;;;;;5047904;28;20208;-82
2023/08/30 06:12:08;;;;;;;0.10;0.10;;;15.30;99.90;;;;;;5058851;28;20275;-82
2023/08/30 06:14:34;;;;;;;0.10;0.10;;;15.30;99.90;;;;;;5048417;28;20250;-82
2023/08/30 06:16:59;;;;;;;0.10;0.10;;;15.20;99.90;;;;;;5049720;28;20202;-83
2023/08/30 06:19:25;;;;;;;0.10;0.10;;;15.60;99.90;;;;;;5064677;28;20541;-83
2023/08/30 06:21:50;;;;;;;0.10;0.10;;;15.90;99.90;;;;;;5041755;28;20200;-83
2023/08/30 06:24:16;;;;;;;0.10;0.10;;;15.70;99.90;;;;;;5047740;28;20924;-83
2023/08/30 06:26:41;;;;;;;0.10;0.10;;;15.80;99.90;;;;;;5047858;28;20192;-82
2023/08/30 06:29:06;;;;;;;0.10;0.10;;;16.00;99.90;;;;;;5047046;28;21136;-83
2023/08/30 06:31:32;;;;;;;0.10;0.10;;;16.00;99.90;;;;;;5047526;28;20256;-83
2023/08/30 06:33:57;;;;;;;0.10;0.10;;;15.90;99.90;;;;;;5049681;28;20236;-83
2023/08/30 06:36:23;;;;;;;0.10;0.10;;;16.20;99.90;;;;;;5048760;28;20224;-83
2023/08/30 06:38:49;;;;;;;0.10;0.10;;;16.40;99.90;;;;;;5047310;28;20732;-83
2023/08/30 06:41:15;;;;;;;0.10;0.10;;;16.50;99.90;;;;;;5047731;28;20590;-83
2023/08/30 06:43:40;;;;;;;0.10;0.10;;;16.50;99.90;;;;;;5050032;28;20193;-83
2023/08/30 06:46:06;;;;;;;0.10;0.10;;;16.60;99.90;;;;;;5046701;28;20323;-83
2023/08/30 06:48:31;;;;;;;0.10;0.10;;;16.80;99.90;;;;;;5049103;28;20780;-83
2023/08/30 06:50:58;;;;;;;0.10;0.10;;;16.80;99.90;;;;;;5045328;28;20187;-82
2023/08/30 06:53:27;;;;;;;0.10;0.10;;;16.70;99.90;;;;;;5055027;28;20218;-82
2023/08/30 06:56:00;;;;;;;0.10;0.10;;;16.50;99.90;;;;;;5047108;28;20192;-82
2023/08/30 06:58:26;;;;;;;0.10;0.10;;;16.80;99.90;;;;;;5045695;28;20990;-82
2023/08/30 07:00:52;;;;;;;0.10;0.10;;;17.10;99.90;;;;;;5047117;28;20177;-82
2023/08/30 07:03:17;;;;;;;0.10;0.10;;;17.40;99.90;;;;;;5048204;28;20200;-83
2023/08/30 07:05:43;;;;;;;0.10;0.10;;;17.50;99.90;;;;;;5048483;28;20201;-83
2023/08/30 07:08:09;;;;;;;0.10;0.10;;;17.60;99.90;;;;;;5049769;28;20205;-83
2023/08/30 07:10:35;;;;;;;0.10;0.10;;;17.60;99.90;;;;;;5047220;28;20185;-83
2023/08/30 07:13:00;;;;;;;0.10;0.10;;;17.90;99.90;;;;;;5051573;28;20220;-83
2023/08/30 07:15:26;;;;;;;0.10;0.10;;;17.90;99.90;;;;;;5051010;28;20205;-83
2023/08/30 07:17:51;;;;;;;0.10;0.10;;;18.10;99.90;;;;;;5050627;28;20217;-83
2023/08/30 07:20:17;;;;;;;0.10;0.10;;;17.90;99.90;;;;;;5049255;28;20216;-83
2023/08/30 07:22:42;;;;;;;0.10;0.10;;;17.70;99.90;;;;;;5049661;28;20235;-83
2023/08/30 07:25:10;;;;;;;0.10;0.10;;;17.80;99.90;;;;;;5047833;28;20194;-82
2023/08/30 07:27:36;;;;;;;0.10;0.10;;;17.90;99.90;;;;;;5046453;28;20626;-84
2023/08/30 07:30:01;;;;;;;0.10;0.10;;;18.20;99.90;;;;;;5048418;28;20243;-81
2023/08/30 07:32:27;;;;;;;0.10;0.10;;;18.40;99.90;;;;;;5050267;28;20186;-82
2023/08/30 07:34:52;;;;;;;0.10;0.10;;;18.20;99.90;;;;;;5048128;28;20852;-82
2023/08/30 07:37:20;;;;;;;0.10;0.10;;;18.40;99.90;;;;;;5049851;28;20224;-81
2023/08/30 07:39:45;;;;;;;0.10;0.10;;;18.50;99.90;;;;;;5047483;28;20187;-81
2023/08/30 07:42:11;;;;;;;0.10;0.10;;;18.60;99.90;;;;;;5049579;28;20185;-81
2023/08/30 07:44:36;;;;;;;0.10;0.10;;;18.90;99.90;;;;;;5046966;28;20216;-81
2023/08/30 07:47:02;;;;;;;0.10;0.10;;;19.00;99.90;;;;;;5048162;28;20508;-82
2023/08/30 07:49:28;;;;;;;0.10;0.10;;;18.80;99.90;;;;;;5047414;28;20671;-82
2023/08/30 07:51:53;;;;;;;0.10;0.10;;;19.00;99.90;;;;;;5047311;28;20191;-81
2023/08/30 07:54:19;;;;;;;0.10;0.10;;;19.10;99.90;;;;;;5049689;28;20224;-82
2023/08/30 07:56:44;;;;;;;0.10;0.10;;;19.10;99.90;;;;;;5049406;28;20778;-82
2023/08/30 07:59:10;;;;;;;0.03;0.03;;;19.30;99.90;;;;;;5049084;28;20196;-82
2023/08/30 08:01:35;;;;;;;0.10;0.10;;;19.40;99.90;;;;;;5049667;28;20207;-82
2023/08/30 08:04:01;;;;;;;0.10;0.10;;;19.40;99.90;;;;;;5039920;28;20690;-81
2023/08/30 08:06:26;;;;;;;0.10;0.10;;;19.40;99.90;;;;;;5042818;28;20190;-80
2023/08/30 08:08:52;;;;;;;0.10;0.10;;;19.60;99.90;;;;;;5061435;28;20210;-80
2023/08/30 08:11:18;;;;;;;0.10;0.10;;;19.60;99.90;;;;;;5041430;28;20178;-81
2023/08/30 08:13:43;;;;;;;0.10;0.10;;;19.60;99.90;;;;;;5044094;28;20187;-81
2023/08/30 08:16:09;;;;;;;0.10;0.10;;;19.40;99.90;;;;;;5042575;28;20241;-80
2023/08/30 08:18:34;;;;;;;0.10;0.10;;;19.40;99.90;;;;;;5057958;28;20213;-81
2023/08/30 08:21:00;;;;;;;0.10;0.10;;;19.50;99.90;;;;;;5043021;28;20191;-81
2023/08/30 08:23:26;;;;;;;0.10;0.10;;;19.60;99.90;;;;;;5042097;28;20669;-81
2023/08/30 08:25:58;;;;;;;0.10;0.10;;;19.70;99.90;;;;;;5044822;28;20181;-82
2023/08/30 08:28:24;;;;;;;0.10;0.10;;;19.60;99.90;;;;;;5043031;28;20668;-82
2023/08/30 08:30:51;;;;;;;0.10;0.10;;;19.70;99.90;;;;;;5050436;28;20188;-82
2023/08/30 08:33:17;;;;;;;0.10;0.10;;;19.80;99.90;;;;;;5048708;28;20198;-81
2023/08/30 08:35:44;;;;;;;0.10;0.10;;;20.00;99.90;;;;;;5038681;28;20202;-82
2023/08/30 08:38:10;;;;;;;0.10;0.10;;;20.10;99.90;;;;;;5048756;28;20186;-81
2023/08/30 08:40:41;;;;;;;0.10;0.10;;;20.30;99.90;;;;;;5049892;28;20192;-82
2023/08/30 08:43:09;;;;;;;0.10;0.10;;;20.30;99.90;;;;;;5050574;28;20188;-82
2023/08/30 08:45:36;;;;;;;0.10;0.10;;;20.30;99.90;;;;;;5050187;28;20201;-81
2023/08/30 08:48:05;;;;;;;0.10;0.10;;;20.30;99.90;;;;;;5048974;28;20193;-81
2023/08/30 08:50:32;;;;;;;0.10;0.10;;;20.40;99.90;;;;;;5046398;28;20520;-81
2023/08/30 08:52:59;;;;;;;0.10;0.10;;;20.50;99.90;;;;;;5042581;28;20221;-81
2023/08/30 08:55:26;;;;;;;0.10;0.10;;;20.50;99.90;;;;;;5043334;28;21284;-81
2023/08/30 08:57:53;;;;;;;0.10;0.10;;;20.50;99.90;;;;;;5042424;28;20221;-81
2023/08/30 09:00:19;;;;;;;0.10;0.10;;;20.50;99.90;;;;;;5044381;28;20877;-81
2023/08/30 09:02:46;;;;;;;0.10;0.10;;;20.60;99.90;;;;;;5044724;28;20213;-80
2023/08/30 09:05:11;;;;;;;0.10;0.10;;;20.60;99.90;;;;;;5040447;28;20198;-81
2023/08/30 09:07:37;;;;;;;0.10;0.10;;;20.70;99.90;;;;;;5041465;28;20275;-82
2023/08/30 09:10:03;;;;;;;0.10;0.10;;;20.80;99.90;;;;;;5044184;28;20185;-80
2023/08/30 09:12:33;;;;;;;0.10;0.10;;;20.70;99.90;;;;;;5044210;28;20185;-80
2023/08/30 09:14:59;;;;;;;0.10;0.10;;;20.70;99.90;;;;;;5044301;28;20209;-80
2023/08/30 09:17:38;;;;;;;0.10;0.10;;;21.00;99.90;;;;;;5046488;28;20206;-82
2023/08/30 09:20:09;;;;;;;0.10;0.10;;;21.20;99.90;;;;;;5050041;28;20180;-81
2023/08/30 09:22:41;;;;;;;0.10;0.10;;;21.30;99.90;;;;;;5044909;28;20213;-82
2023/08/30 09:25:21;;;;;;;0.10;0.10;;;21.30;99.90;;;;;;5044595;28;20225;-81
2023/08/30 09:27:47;;;;;;;0.10;0.10;;;21.40;99.90;;;;;;5059295;28;20197;-82
2023/08/30 09:30:13;;;;;;;0.10;0.10;;;21.40;99.90;;;;;;5044700;28;20193;-82
2023/08/30 09:32:42;;;;;;;0.10;0.10;;;21.60;99.90;;;;;;5044595;28;20248;-81
2023/08/30 09:35:08;;;;;;;0.10;0.10;;;21.70;99.90;;;;;;5047189;28;20600;-82
2023/08/30 09:37:34;;;;;;;0.10;0.10;;;21.60;99.90;;;;;;5043412;28;20280;-82
2023/08/30 09:39:59;;;;;;;0.10;0.10;;;21.80;99.90;;;;;;5045161;28;20833;-82
2023/08/30 09:42:25;;;;;;;0.10;0.10;;;21.60;99.90;;;;;;5043614;28;20181;-82
2023/08/30 09:44:51;;;;;;;0.10;0.10;;;21.90;99.90;;;;;;5045805;28;20197;-82
2023/08/30 09:47:16;;;;;;;0.10;0.10;;;22.10;99.90;;;;;;5042753;28;20560;-82
2023/08/30 09:49:46;;;;;;;0.10;0.10;;;22.20;99.90;;;;;;5044343;28;20193;-82
2023/08/30 09:52:15;;;;;;;0.10;0.10;;;22.30;99.90;;;;;;5035465;28;20304;-82
2023/08/30 09:54:43;;;;;;;0.10;0.10;;;22.40;99.90;;;;;;5043492;28;20259;-82
2023/08/30 09:57:09;;;;;;;0.10;0.10;;;22.70;99.90;;;;;;5044949;28;20217;-85
2023/08/30 09:59:35;;;;;;;0.10;0.10;;;22.70;99.90;;;;;;5045460;28;20385;-82
2023/08/30 10:02:01;;;;;;;0.10;0.10;;;23.10;99.90;;;;;;5044612;28;20253;-83
2023/08/30 10:04:28;;;;;;;0.10;0.10;;;23.20;99.90;;;;;;5045045;28;20562;-81
2023/08/30 10:06:57;;;;;;;0.10;0.10;;;23.30;99.90;;;;;;5045451;28;20242;-83
2023/08/30 10:09:24;;;;;;;0.10;0.10;;;23.00;99.90;;;;;;5045707;28;20197;-82
2023/08/30 10:11:50;;;;;;;0.10;0.10;;;23.00;99.90;;;;;;5042477;28;20189;-83
2023/08/30 10:14:17;;;;;;;0.10;0.10;;;22.80;99.90;;;;;;5044094;28;20732;-81
2023/08/30 10:16:47;;;;;;;0.10;0.10;;;23.20;99.90;;;;;;5044797;28;20702;-81
2023/08/30 10:19:23;;;;;;;0.10;0.10;;;23.00;99.90;;;;;;5049509;28;20182;-80
2023/08/30 10:22:00;;;;;;;0.10;0.10;;;23.20;99.90;;;;;;5042714;28;20197;-81
2023/08/30 10:24:26;;;;;;;0.10;0.10;;;23.50;99.90;;;;;;5044203;28;20258;-81
2023/08/30 10:26:53;;;;;;;0.10;0.10;;;23.00;99.90;;;;;;5041940;28;20201;-81
2023/08/30 10:29:20;;;;;;;0.10;0.10;;;23.10;99.90;;;;;;5043322;28;20675;-81
2023/08/30 10:31:45;;;;;;;0.10;0.10;;;23.00;99.90;;;;;;5058082;28;20190;-81
2023/08/30 10:34:20;;;;;;;0.10;0.10;;;22.80;99.90;;;;;;5042218;28;20214;-81
2023/08/30 10:36:57;;;;;;;0.10;0.10;;;22.80;99.90;;;;;;5043906;28;20193;-81
2023/08/30 10:39:37;;;;;;;0.10;0.10;;;22.70;99.90;;;;;;5042824;28;22155;-81
2023/08/30 10:42:14;;;;;;;0.10;0.10;;;22.80;99.90;;;;;;5043956;28;20186;-81
2023/08/30 10:44:59;;;;;;;0.10;0.10;;;22.90;99.90;;;;;;5043320;28;20292;-81
2023/08/30 10:47:28;;;;;;;0.10;0.10;;;22.30;99.90;;;;;;5041275;28;20194;-81
2023/08/30 10:49:55;;;;;;;0.10;0.10;;;22.20;99.90;;;;;;5046277;28;20296;-81
2023/08/30 10:52:21;;;;;;;0.10;0.10;;;22.40;99.90;;;;;;5048550;28;20190;-81
2023/08/30 10:54:47;;;;;;;0.10;0.10;;;22.40;99.90;;;;;;5045670;28;20201;-81
2023/08/30 10:57:21;;;;;;;0.10;0.10;;;22.50;99.90;;;;;;5057547;28;20201;-84
2023/08/30 11:00:07;;;;;;;0.10;0.10;;;22.60;99.90;;;;;;5060211;28;20628;-83
2023/08/30 11:02:34;;;;;;;0.10;0.10;;;22.80;99.90;;;;;;5045127;28;20177;-83
2023/08/30 11:05:00;;;;;;;0.10;0.10;;;23.00;99.90;;;;;;5046443;28;20320;-84
2023/08/30 11:07:26;;;;;;;0.10;0.10;;;23.10;99.90;;;;;;5048369;28;20240;-83
2023/08/30 11:09:52;;;;;;;0.10;0.10;;;23.20;99.90;;;;;;5055493;28;20217;-83
2023/08/30 11:12:22;;;;;;;0.10;0.10;;;23.50;99.90;;;;;;5042907;28;20627;-83
2023/08/30 11:14:47;;;;;;;0.10;0.10;;;23.60;99.90;;;;;;5046031;28;20704;-81
2023/08/30 11:17:15;;;;;;;0.10;0.10;;;24.00;99.90;;;;;;5049673;28;20213;-83
2023/08/30 11:19:41;;;;;;;0.10;0.10;;;23.90;99.90;;;;;;5062078;28;20190;-83
2023/08/30 11:22:06;;;;;;;0.10;0.10;;;23.90;99.90;;;;;;5045190;28;20259;-82
2023/08/30 11:24:33;;;;;;;0.10;0.10;;;24.00;99.90;;;;;;5047942;28;20546;-82
2023/08/30 11:26:59;;;;;;;0.10;0.10;;;24.00;99.90;;;;;;5047274;28;20285;-82
2023/08/30 11:29:26;;;;;;;0.10;0.10;;;24.10;99.90;;;;;;5049124;28;20324;-83
2023/08/30 11:31:52;;;;;;;0.10;0.10;;;24.20;99.90;;;;;;5061581;28;20190;-83
2023/08/30 11:34:21;;;;;;;0.10;0.10;;;24.10;99.90;;;;;;5037846;28;20311;-83
2023/08/30 11:36:47;;;;;;;0.10;0.10;;;24.30;99.90;;;;;;5049011;28;20198;-81
2023/08/30 11:39:14;;;;;;;0.10;0.10;;;24.50;99.90;;;;;;5046544;28;20199;-82
2023/08/30 11:41:40;;;;;;;0.10;0.10;;;24.30;99.90;;;;;;5046371;28;20174;-82
2023/08/30 11:44:05;;;;;;;0.10;0.10;;;24.70;99.90;;;;;;5047252;28;20212;-82
2023/08/30 11:46:32;;;;;;;0.10;0.10;;;24.80;99.90;;;;;;5042880;28;20182;-82
2023/08/30 11:48:57;;;;;;;0.10;0.10;;;25.10;99.90;;;;;;5045360;28;20186;-82
2023/08/30 11:51:23;;;;;;;0.10;0.10;;;25.30;99.90;;;;;;5045802;28;20186;-82
2023/08/30 11:53:49;;;;;;;0.10;0.10;;;25.30;99.90;;;;;;5039441;28;20282;-82
2023/08/30 11:56:16;;;;;;;0.10;0.10;;;25.30;99.90;;;;;;5046880;28;20228;-81
2023/08/30 11:58:43;;;;;;;0.10;0.10;;;25.30;99.90;;;;;;5045320;28;20186;-82
2023/08/30 12:01:09;;;;;;;0.10;0.10;;;25.30;99.90;;;;;;5044904;28;20189;-82
2023/08/30 12:03:34;;;;;;;0.10;0.10;;;25.20;99.90;;;;;;5045662;28;20181;-82
2023/08/30 12:06:01;;;;;;;3.17;3.07;;;25.00;99.90;;;;;;5048139;28;20194;-82
2023/08/30 12:08:28;;;;;;;0.10;0.10;;;24.90;99.90;;;;;;5045185;28;20209;-82
2023/08/30 12:10:55;;;;;;;0.10;0.10;;;24.90;99.90;;;;;;5045718;28;20245;-82
2023/08/30 12:13:24;;;;;;;0.10;0.10;;;25.20;99.90;;;;;;5046816;28;20201;-81
2023/08/30 12:15:51;;;;;;;0.10;0.10;;;25.20;99.90;;;;;;5037767;28;20231;-82
2023/08/30 12:18:20;;;;;;;0.10;0.10;;;25.10;99.90;;;;;;5048069;28;20177;-82
2023/08/30 12:20:57;;;;;;;0.10;0.10;;;25.20;99.90;;;;;;5062457;28;20599;-82
2023/08/30 12:23:27;;;;;;;0.10;0.10;;;24.90;99.90;;;;;;5046300;28;20268;-81
2023/08/30 12:26:13;;;;;;;0.10;0.10;;;25.00;99.90;;;;;;5060503;28;20296;-82
2023/08/30 12:28:45;;;;;;;0.10;0.10;;;25.20;99.90;;;;;;5047040;28;20201;-83
2023/08/30 12:31:11;;;;;;;0.10;0.10;;;25.20;99.90;;;;;;5047018;28;20203;-84
2023/08/30 12:33:39;;;;;;;0.10;0.10;;;24.90;99.90;;;;;;5044167;28;20186;-83
2023/08/30 12:36:05;;;;;;;0.10;0.10;;;25.00;99.90;;;;;;5047484;28;20276;-81
2023/08/30 12:38:30;;;;;;;0.10;0.10;;;24.90;99.90;;;;;;5037976;28;20281;-82
2023/08/30 12:40:56;;;;;;;0.10;0.10;;;24.90;99.90;;;;;;5056924;28;20193;-83
2023/08/30 12:43:23;;;;;;;0.10;0.10;;;24.70;99.90;;;;;;5043333;28;20170;-81
2023/08/30 12:45:49;;;;;;;0.10;0.10;;;24.40;99.90;;;;;;5041236;28;20209;-81